Time;durP1;ratioP1;P1;durP2;ratioP2;P2;SDS_P1;SDS_P2;PMS_P1;PMS_P2;Temp;Humidity;BMP_temperature;BMP_pressure;BME280_temperature;BME280_humidity;BME280_pressure;Samples;Min_cycle;Max_cycle;Signal;HPM_P1;HPM_P2
2023/06/22 00:01:22;;;;;;;12.20;5.63;;;21.90;98.00;;;;;;5013094;28;20946;-69
2023/06/22 00:03:50;;;;;;;10.10;5.23;;;21.80;98.00;;;;;;5013696;28;20451;-69
2023/06/22 00:06:17;;;;;;;8.90;5.27;;;21.90;98.00;;;;;;5013572;28;20530;-69
2023/06/22 00:08:44;;;;;;;10.30;5.57;;;21.80;98.00;;;;;;5012255;28;20531;-69
2023/06/22 00:11:12;;;;;;;17.23;5.83;;;21.80;98.00;;;;;;5012482;28;20961;-69
2023/06/22 00:13:39;;;;;;;13.17;5.87;;;21.70;98.00;;;;;;5013605;28;20542;-69
2023/06/22 00:16:07;;;;;;;8.50;5.13;;;21.80;98.00;;;;;;5013838;28;20482;-68
2023/06/22 00:18:34;;;;;;;10.57;5.07;;;21.80;98.00;;;;;;5013602;28;20455;-69
2023/06/22 00:21:02;;;;;;;9.53;5.00;;;21.80;98.00;;;;;;5013643;28;20486;-68
2023/06/22 00:23:33;;;;;;;9.80;5.67;;;21.70;98.00;;;;;;5013459;28;20464;-69
2023/06/22 00:26:00;;;;;;;8.90;5.37;;;21.60;98.00;;;;;;5013602;28;20845;-69
2023/06/22 00:28:28;;;;;;;10.03;5.40;;;21.50;98.00;;;;;;5012994;28;20483;-68
2023/06/22 00:30:55;;;;;;;10.43;5.30;;;21.50;98.00;;;;;;5013265;28;20557;-68
2023/06/22 00:33:23;;;;;;;10.73;5.50;;;21.50;98.00;;;;;;5012982;28;20455;-68
2023/06/22 00:35:52;;;;;;;7.27;4.70;;;21.50;98.00;;;;;;5013096;28;20470;-69
2023/06/22 00:38:21;;;;;;;12.70;5.73;;;21.50;98.00;;;;;;5013155;28;20479;-68
2023/06/22 00:40:48;;;;;;;8.43;5.00;;;21.50;98.00;;;;;;5013071;28;20835;-69
2023/06/22 00:43:15;;;;;;;10.03;5.27;;;21.60;98.00;;;;;;5013059;28;20877;-69
2023/06/22 00:45:42;;;;;;;10.77;5.20;;;21.60;98.00;;;;;;5013118;28;20860;-68
2023/06/22 00:48:10;;;;;;;13.50;5.40;;;21.60;98.00;;;;;;5012833;28;20487;-69
2023/06/22 00:50:37;;;;;;;8.30;4.37;;;21.70;98.00;;;;;;5012734;28;20864;-69
2023/06/22 00:53:08;;;;;;;14.00;5.47;;;21.70;98.00;;;;;;5011557;28;20447;-69
2023/06/22 00:55:39;;;;;;;10.40;4.40;;;21.80;98.00;;;;;;5012925;28;20463;-68
2023/06/22 00:58:10;;;;;;;8.33;4.70;;;21.90;98.00;;;;;;5012792;28;20462;-68
2023/06/22 01:00:37;;;;;;;10.47;4.93;;;21.90;98.00;;;;;;5012869;28;20459;-68
2023/06/22 01:03:08;;;;;;;10.03;5.40;;;22.00;98.00;;;;;;5012663;28;20463;-68
2023/06/22 01:05:36;;;;;;;9.93;4.97;;;22.10;98.00;;;;;;5012764;28;20491;-68
2023/06/22 01:08:24;;;;;;;11.57;5.40;;;21.90;98.00;;;;;;5012267;28;20495;-68
2023/06/22 01:11:01;;;;;;;10.30;5.10;;;21.90;98.00;;;;;;5012417;28;20460;-69
2023/06/22 01:13:33;;;;;;;9.63;5.30;;;22.00;98.00;;;;;;5012639;28;20517;-69
2023/06/22 01:16:04;;;;;;;9.00;5.00;;;21.80;98.00;;;;;;5012806;28;20491;-68
2023/06/22 01:18:36;;;;;;;8.43;4.87;;;21.50;98.00;;;;;;5011503;28;20451;-68
2023/06/22 01:21:07;;;;;;;9.90;5.33;;;21.40;98.00;;;;;;5011496;28;20817;-68
2023/06/22 01:23:52;;;;;;;10.53;4.80;;;21.30;98.00;;;;;;5012230;28;20478;-69
2023/06/22 01:26:29;;;;;;;7.93;5.00;;;21.20;98.00;;;;;;5012576;28;20522;-69
2023/06/22 01:29:00;;;;;;;10.30;5.17;;;21.40;98.00;;;;;;5011639;28;21000;-68
2023/06/22 01:31:30;;;;;;;9.30;4.97;;;21.30;98.00;;;;;;5012424;28;20459;-69
2023/06/22 01:34:01;;;;;;;18.33;5.50;;;21.00;98.00;;;;;;5012034;28;20455;-69
2023/06/22 01:36:30;;;;;;;7.60;4.70;;;21.00;98.00;;;;;;5012303;28;20451;-68
2023/06/22 01:38:59;;;;;;;6.90;4.37;;;20.90;98.00;;;;;;5012121;28;20514;-68
2023/06/22 01:41:28;;;;;;;10.63;5.57;;;20.80;98.00;;;;;;5012228;28;20452;-69
2023/06/22 01:43:58;;;;;;;9.30;5.57;;;20.80;98.00;;;;;;5012208;28;20467;-69
2023/06/22 01:46:25;;;;;;;10.87;5.30;;;20.80;98.00;;;;;;5010835;28;20550;-69
2023/06/22 01:48:53;;;;;;;10.70;5.83;;;20.90;98.00;;;;;;5012086;28;20483;-69
2023/06/22 01:51:21;;;;;;;10.57;5.57;;;20.80;98.00;;;;;;5011036;28;20545;-69
2023/06/22 01:53:48;;;;;;;10.20;5.70;;;21.00;98.00;;;;;;5011997;28;20475;-69
2023/06/22 01:56:19;;;;;;;7.70;4.77;;;21.00;98.00;;;;;;5012324;28;20459;-68
2023/06/22 01:58:51;;;;;;;10.37;5.60;;;20.90;98.00;;;;;;5012142;28;20491;-69
2023/06/22 02:01:25;;;;;;;9.20;5.20;;;20.80;98.00;;;;;;5012136;28;20451;-69
2023/06/22 02:03:58;;;;;;;11.03;5.70;;;20.80;98.00;;;;;;5012097;28;20454;-68
2023/06/22 02:06:34;;;;;;;8.03;5.07;;;20.90;98.00;;;;;;5012113;28;20468;-68
2023/06/22 02:09:07;;;;;;;11.10;5.47;;;21.10;98.00;;;;;;5012144;28;20487;-69
2023/06/22 02:11:36;;;;;;;8.73;5.30;;;20.90;98.00;;;;;;5012314;28;20506;-69
2023/06/22 02:14:03;;;;;;;13.70;4.77;;;20.90;98.00;;;;;;5011798;28;21024;-69
2023/06/22 02:16:32;;;;;;;10.27;5.30;;;20.80;98.00;;;;;;5010889;28;20455;-69
2023/06/22 02:19:03;;;;;;;9.07;4.93;;;20.80;98.00;;;;;;5010606;28;20458;-69
2023/06/22 02:21:31;;;;;;;12.43;5.20;;;21.00;98.00;;;;;;5011980;28;20459;-68
2023/06/22 02:23:58;;;;;;;8.50;4.80;;;20.80;98.00;;;;;;5013876;28;20550;-68
2023/06/22 02:26:27;;;;;;;9.83;4.70;;;20.60;98.00;;;;;;5015522;28;20463;-69
2023/06/22 02:28:54;;;;;;;7.10;4.53;;;20.60;98.00;;;;;;5015186;28;20514;-69
2023/06/22 02:31:21;;;;;;;9.53;4.93;;;20.70;98.00;;;;;;5015658;28;20460;-68
2023/06/22 02:33:58;;;;;;;9.30;4.90;;;20.90;98.00;;;;;;5015205;28;20455;-68
2023/06/22 02:36:27;;;;;;;8.77;4.80;;;20.70;98.00;;;;;;5015505;28;20880;-68
2023/06/22 02:39:00;;;;;;;6.87;4.77;;;20.30;98.00;;;;;;5015167;28;21036;-68
2023/06/22 02:41:28;;;;;;;8.00;4.30;;;20.10;98.00;;;;;;5015261;28;21175;-68
2023/06/22 02:43:55;;;;;;;12.17;5.30;;;20.00;98.00;;;;;;5015139;28;20595;-69
2023/06/22 02:46:22;;;;;;;8.20;4.90;;;20.10;98.00;;;;;;5015259;28;20458;-68
2023/06/22 02:48:50;;;;;;;10.80;5.20;;;20.00;98.00;;;;;;5013838;28;20872;-69
2023/06/22 02:51:17;;;;;;;9.70;5.50;;;20.00;98.00;;;;;;5015120;28;20459;-69
2023/06/22 02:53:45;;;;;;;7.47;4.63;;;19.70;98.00;;;;;;5015052;28;20920;-68
2023/06/22 02:56:13;;;;;;;10.10;5.27;;;19.80;98.00;;;;;;5015235;28;20459;-68
2023/06/22 02:58:40;;;;;;;8.57;4.27;;;19.90;98.00;;;;;;5014350;28;20945;-68
2023/06/22 03:01:07;;;;;;;8.50;5.00;;;19.90;98.00;;;;;;5015181;28;20467;-68
2023/06/22 03:03:34;;;;;;;10.37;5.20;;;20.00;98.00;;;;;;5014979;28;20466;-68
2023/06/22 03:06:03;;;;;;;9.30;4.70;;;20.00;98.00;;;;;;5015110;28;20537;-69
2023/06/22 03:08:30;;;;;;;8.13;4.67;;;20.10;98.00;;;;;;5014640;28;21075;-69
2023/06/22 03:10:57;;;;;;;10.93;4.87;;;20.20;98.00;;;;;;5015031;28;20858;-68
2023/06/22 03:13:24;;;;;;;8.90;4.93;;;20.30;98.00;;;;;;5014647;28;20463;-68
2023/06/22 03:15:52;;;;;;;9.00;5.40;;;20.30;98.00;;;;;;5014700;28;20459;-68
2023/06/22 03:18:19;;;;;;;8.00;4.70;;;20.30;98.00;;;;;;5014440;28;20452;-68
2023/06/22 03:20:46;;;;;;;9.77;4.70;;;20.60;98.00;;;;;;5014706;28;20831;-68
2023/06/22 03:23:14;;;;;;;6.70;4.40;;;20.60;98.00;;;;;;5014588;28;20448;-69
2023/06/22 03:25:44;;;;;;;11.10;4.80;;;20.70;98.00;;;;;;5014406;28;20459;-68
2023/06/22 03:28:11;;;;;;;10.00;4.90;;;20.60;98.00;;;;;;5014269;28;20518;-69
2023/06/22 03:30:38;;;;;;;10.30;4.63;;;20.50;98.00;;;;;;5013102;28;20874;-68
2023/06/22 03:33:05;;;;;;;9.70;5.13;;;20.30;98.00;;;;;;5014285;28;20455;-69
2023/06/22 03:35:34;;;;;;;13.23;4.87;;;20.20;98.00;;;;;;5014050;28;20864;-68
2023/06/22 03:38:01;;;;;;;9.83;5.07;;;20.20;98.00;;;;;;5014240;28;21024;-69
2023/06/22 03:40:29;;;;;;;9.47;4.93;;;20.00;98.00;;;;;;5014138;28;20455;-69
2023/06/22 03:42:56;;;;;;;9.00;5.20;;;19.90;98.00;;;;;;5014182;28;20462;-69
2023/06/22 03:45:24;;;;;;;12.37;6.13;;;19.80;98.00;;;;;;5014003;28;20467;-68
2023/06/22 03:47:51;;;;;;;8.60;5.00;;;19.70;98.00;;;;;;5012890;28;20483;-69
2023/06/22 03:50:20;;;;;;;8.90;4.70;;;19.80;98.00;;;;;;5013734;28;20464;-68
2023/06/22 03:52:47;;;;;;;9.93;5.20;;;19.90;98.00;;;;;;5014183;28;20455;-69
2023/06/22 03:55:14;;;;;;;7.50;4.33;;;19.90;98.00;;;;;;5014163;28;20455;-69
2023/06/22 03:57:42;;;;;;;9.67;5.27;;;19.80;98.00;;;;;;5014050;28;20460;-69
2023/06/22 04:00:11;;;;;;;9.90;4.77;;;19.70;98.00;;;;;;5014255;28;20470;-69
2023/06/22 04:02:38;;;;;;;9.80;5.60;;;19.60;98.00;;;;;;5013875;28;20530;-69
2023/06/22 04:05:05;;;;;;;9.13;4.87;;;19.60;98.00;;;;;;5013611;28;20554;-69
2023/06/22 04:07:33;;;;;;;15.40;6.10;;;19.50;98.00;;;;;;5012488;28;20459;-69
2023/06/22 04:10:01;;;;;;;11.13;5.80;;;19.50;98.00;;;;;;5013664;28;20467;-69
2023/06/22 04:12:28;;;;;;;9.80;5.77;;;19.60;98.00;;;;;;5013123;28;20466;-68
2023/06/22 04:14:56;;;;;;;7.97;4.70;;;19.60;98.00;;;;;;5013532;28;20954;-69
2023/06/22 04:17:24;;;;;;;9.80;5.50;;;19.60;98.00;;;;;;5013440;28;20460;-68
2023/06/22 04:19:51;;;;;;;9.67;5.17;;;19.80;98.00;;;;;;5013324;28;20459;-68
2023/06/22 04:22:19;;;;;;;8.60;5.27;;;19.80;98.00;;;;;;5013568;28;20806;-69
2023/06/22 04:24:46;;;;;;;10.00;5.00;;;19.90;98.00;;;;;;5013244;28;20459;-69
2023/06/22 04:27:13;;;;;;;8.90;5.43;;;19.90;98.00;;;;;;5013334;28;20577;-69
2023/06/22 04:29:48;;;;;;;10.77;6.10;;;20.00;98.00;;;;;;5013126;28;20487;-69
2023/06/22 04:32:24;;;;;;;10.33;5.07;;;20.10;98.00;;;;;;5013372;28;20459;-69
2023/06/22 04:34:52;;;;;;;9.83;5.73;;;20.10;98.00;;;;;;5013215;28;20482;-69
2023/06/22 04:37:19;;;;;;;17.63;4.97;;;20.30;98.00;;;;;;5013299;28;20863;-69
2023/06/22 04:39:46;;;;;;;8.60;4.87;;;20.30;98.00;;;;;;5013180;28;20514;-69
2023/06/22 04:42:13;;;;;;;8.43;5.23;;;20.30;98.00;;;;;;5013176;28;20543;-69
2023/06/22 04:44:41;;;;;;;10.37;5.13;;;20.50;98.00;;;;;;5013164;28;20517;-68
2023/06/22 04:47:09;;;;;;;9.40;5.70;;;20.70;98.00;;;;;;5012632;28;20459;-68
2023/06/22 04:49:40;;;;;;;11.23;6.10;;;20.80;98.00;;;;;;5013087;28;20577;-69
2023/06/22 04:52:09;;;;;;;11.87;5.90;;;20.90;98.00;;;;;;5012899;28;20456;-68
2023/06/22 04:54:37;;;;;;;12.63;6.27;;;21.00;98.00;;;;;;5013159;28;20482;-69
2023/06/22 04:57:09;;;;;;;10.23;5.37;;;21.10;98.00;;;;;;5012871;28;20466;-68
2023/06/22 04:59:38;;;;;;;8.13;4.87;;;21.20;98.00;;;;;;5012675;28;20460;-69
2023/06/22 05:02:07;;;;;;;11.10;6.20;;;21.20;98.00;;;;;;5012706;28;20509;-69
2023/06/22 05:04:38;;;;;;;10.47;5.60;;;21.20;98.00;;;;;;5012285;28;20486;-68
2023/06/22 05:07:06;;;;;;;9.80;5.37;;;21.30;98.00;;;;;;5012491;28;20798;-69
2023/06/22 05:09:34;;;;;;;11.80;5.00;;;21.20;98.00;;;;;;5012485;28;20920;-69
2023/06/22 05:12:04;;;;;;;10.90;5.90;;;21.20;98.00;;;;;;5012404;28;20452;-69
2023/06/22 05:14:31;;;;;;;8.53;5.17;;;21.10;98.00;;;;;;5012485;28;20456;-69
2023/06/22 05:17:03;;;;;;;10.63;5.53;;;21.10;98.00;;;;;;5012362;28;20860;-69
2023/06/22 05:19:33;;;;;;;11.27;5.80;;;21.20;98.00;;;;;;5012601;28;20463;-68
2023/06/22 05:22:01;;;;;;;7.93;4.60;;;21.30;98.00;;;;;;5012389;28;20447;-69
2023/06/22 05:24:28;;;;;;;6.50;4.20;;;21.40;98.00;;;;;;5012332;28;20460;-69
2023/06/22 05:26:55;;;;;;;8.40;4.57;;;21.50;98.00;;;;;;5012435;28;20463;-69
2023/06/22 05:29:23;;;;;;;13.03;5.30;;;21.60;98.00;;;;;;5012432;28;20483;-69
2023/06/22 05:31:50;;;;;;;14.10;5.17;;;21.80;98.00;;;;;;5012332;28;20464;-69
2023/06/22 05:34:17;;;;;;;8.13;4.33;;;21.90;98.00;;;;;;5012538;28;20563;-69
2023/06/22 05:36:44;;;;;;;8.10;4.20;;;22.00;98.00;;;;;;5012513;28;20864;-69
2023/06/22 05:39:16;;;;;;;7.93;4.60;;;22.00;98.00;;;;;;5012404;28;20467;-69
2023/06/22 05:41:44;;;;;;;9.13;4.93;;;22.10;98.00;;;;;;5012430;28;20467;-69
2023/06/22 05:44:11;;;;;;;7.80;4.60;;;22.10;98.00;;;;;;5012546;28;20645;-69
2023/06/22 05:46:38;;;;;;;7.90;4.50;;;22.20;98.00;;;;;;5012455;28;20460;-69
2023/06/22 05:49:05;;;;;;;9.57;4.50;;;22.30;98.00;;;;;;5012227;28;20490;-69
2023/06/22 05:51:33;;;;;;;9.37;4.60;;;22.30;98.00;;;;;;5012098;28;20505;-68
2023/06/22 05:54:00;;;;;;;11.20;4.67;;;22.40;98.00;;;;;;5011831;28;20466;-65
2023/06/22 05:56:28;;;;;;;8.57;4.90;;;22.50;98.00;;;;;;5012061;28;20514;-65
2023/06/22 05:58:55;;;;;;;9.03;5.07;;;22.60;98.00;;;;;;5014206;28;20545;-65
2023/06/22 06:01:23;;;;;;;6.50;3.97;;;22.70;98.00;;;;;;5015979;28;20459;-65
2023/06/22 06:03:52;;;;;;;9.20;4.47;;;22.80;98.00;;;;;;5015923;28;21065;-65
2023/06/22 06:06:21;;;;;;;7.77;4.50;;;22.80;98.00;;;;;;5014597;28;20509;-65
2023/06/22 06:08:48;;;;;;;12.30;4.83;;;22.90;98.00;;;;;;5015846;28;20519;-65
2023/06/22 06:11:15;;;;;;;7.43;4.50;;;23.00;98.00;;;;;;5015751;28;20451;-65
2023/06/22 06:13:45;;;;;;;8.50;4.70;;;23.10;98.00;;;;;;5015802;28;20459;-65
2023/06/22 06:16:12;;;;;;;6.97;4.37;;;23.20;98.00;;;;;;5015923;28;20478;-65
2023/06/22 06:18:39;;;;;;;9.00;5.30;;;23.40;98.00;;;;;;5015638;28;20463;-65
2023/06/22 06:21:06;;;;;;;8.33;4.90;;;23.40;98.00;;;;;;5015661;28;20451;-65
2023/06/22 06:23:34;;;;;;;6.90;4.00;;;23.50;98.00;;;;;;5015681;28;20875;-65
2023/06/22 06:26:01;;;;;;;6.83;3.87;;;23.60;98.00;;;;;;5015594;28;21015;-65
2023/06/22 06:28:28;;;;;;;7.60;4.20;;;23.60;98.00;;;;;;5014503;28;20554;-65
2023/06/22 06:30:56;;;;;;;7.67;4.50;;;23.80;98.00;;;;;;5015489;28;20451;-65
2023/06/22 06:33:24;;;;;;;7.00;3.83;;;24.10;98.00;;;;;;5015699;28;20459;-66
2023/06/22 06:35:51;;;;;;;8.17;4.30;;;24.20;98.00;;;;;;5015469;28;20463;-66
2023/06/22 06:38:18;;;;;;;8.53;4.70;;;24.30;98.00;;;;;;5015646;28;20459;-65
2023/06/22 06:40:45;;;;;;;7.97;4.73;;;24.40;98.00;;;;;;5014521;28;20486;-64
2023/06/22 06:43:15;;;;;;;7.83;4.70;;;24.50;98.00;;;;;;5015675;28;20459;-67
2023/06/22 06:45:42;;;;;;;8.33;4.17;;;24.50;98.00;;;;;;5015406;28;20458;-67
2023/06/22 06:48:10;;;;;;;8.13;4.10;;;24.50;98.00;;;;;;5015137;28;21031;-65
2023/06/22 06:50:37;;;;;;;7.47;4.37;;;24.60;98.00;;;;;;5015140;28;20479;-64
2023/06/22 06:53:05;;;;;;;12.30;3.93;;;24.70;98.00;;;;;;5015087;28;20965;-66
2023/06/22 06:55:33;;;;;;;9.30;4.57;;;24.70;98.00;;;;;;5015090;28;20466;-65
2023/06/22 06:58:01;;;;;;;9.33;4.07;;;24.90;98.00;;;;;;5014994;28;20559;-65
2023/06/22 07:00:28;;;;;;;9.03;4.10;;;24.90;98.00;;;;;;5014563;28;20451;-66
2023/06/22 07:02:55;;;;;;;6.43;4.03;;;25.10;98.00;;;;;;5014977;28;20463;-66
2023/06/22 07:05:26;;;;;;;10.00;4.37;;;25.00;98.00;;;;;;5014573;28;20933;-65
2023/06/22 07:07:53;;;;;;;6.47;3.87;;;24.90;98.00;;;;;;5015010;28;20795;-65
2023/06/22 07:10:20;;;;;;;7.37;4.10;;;25.00;98.00;;;;;;5014131;28;20582;-65
2023/06/22 07:12:47;;;;;;;5.87;3.73;;;25.10;98.00;;;;;;5014810;28;20456;-65
2023/06/22 07:15:14;;;;;;;7.10;3.97;;;25.10;98.00;;;;;;5014800;28;20529;-67
2023/06/22 07:17:43;;;;;;;6.87;4.00;;;25.20;98.00;;;;;;5014466;28;20455;-64
2023/06/22 07:20:11;;;;;;;9.00;4.63;;;25.40;98.00;;;;;;5014693;28;20471;-65
2023/06/22 07:22:41;;;;;;;7.17;4.03;;;25.50;98.00;;;;;;5017019;28;20475;-65
2023/06/22 07:25:10;;;;;;;8.67;4.60;;;25.50;98.00;;;;;;5020954;28;20464;-64
2023/06/22 07:27:39;;;;;;;7.90;4.30;;;25.70;98.00;;;;;;5022690;28;20864;-65
2023/06/22 07:30:08;;;;;;;8.17;4.20;;;25.70;98.00;;;;;;5032812;28;20494;-64
2023/06/22 07:32:35;;;;;;;6.93;4.00;;;25.80;98.00;;;;;;5032448;28;20451;-65
2023/06/22 07:35:03;;;;;;;6.60;3.90;;;25.80;98.00;;;;;;5024261;28;20471;-65
2023/06/22 07:37:33;;;;;;;6.97;4.00;;;26.00;98.00;;;;;;5013626;28;20462;-63
2023/06/22 07:40:05;;;;;;;19.03;3.93;;;26.00;98.00;;;;;;5013590;28;20515;-65
2023/06/22 07:42:33;;;;;;;6.97;3.87;;;26.00;98.00;;;;;;5013751;28;20462;-67
2023/06/22 07:45:02;;;;;;;9.00;4.27;;;26.20;98.00;;;;;;5012970;28;20563;-66
2023/06/22 07:47:29;;;;;;;6.43;4.03;;;26.30;98.00;;;;;;5013472;28;20456;-67
2023/06/22 07:49:57;;;;;;;8.80;4.10;;;26.50;98.00;;;;;;5011818;28;20483;-67
2023/06/22 07:52:26;;;;;;;5.67;3.80;;;26.70;98.00;;;;;;5013256;28;20452;-65
2023/06/22 07:54:53;;;;;;;7.47;4.00;;;26.70;98.00;;;;;;5012666;28;20513;-67
2023/06/22 07:57:21;;;;;;;6.60;3.93;;;26.90;98.00;;;;;;5011949;28;20485;-66
2023/06/22 07:59:48;;;;;;;6.57;3.93;;;27.00;98.00;;;;;;5018464;28;21062;-67
2023/06/22 08:02:15;;;;;;;9.50;4.23;;;27.10;98.00;;;;;;5019270;28;20447;-66
2023/06/22 08:04:42;;;;;;;8.13;3.67;;;27.10;98.00;;;;;;5012246;28;20881;-66
2023/06/22 08:07:10;;;;;;;6.60;3.70;;;27.20;98.00;;;;;;5012571;28;20452;-66
2023/06/22 08:09:38;;;;;;;5.80;3.80;;;27.40;98.00;;;;;;5012829;28;20511;-66
2023/06/22 08:12:08;;;;;;;5.27;3.63;;;27.60;98.00;;;;;;5012685;28;20505;-66
2023/06/22 08:14:38;;;;;;;7.23;3.53;;;27.70;98.00;;;;;;5012774;28;20469;-67
2023/06/22 08:17:06;;;;;;;5.90;3.80;;;27.90;98.00;;;;;;5012485;28;20505;-67
2023/06/22 08:19:33;;;;;;;6.20;3.77;;;28.00;98.00;;;;;;5012277;28;20490;-68
2023/06/22 08:22:00;;;;;;;6.97;3.97;;;28.10;98.00;;;;;;5010923;28;20980;-67
2023/06/22 08:24:30;;;;;;;7.57;3.50;;;28.30;98.00;;;;;;5012656;28;20459;-67
2023/06/22 08:27:03;;;;;;;7.07;3.63;;;28.40;98.00;;;;;;5019016;28;20454;-70
2023/06/22 08:29:31;;;;;;;5.90;3.40;;;28.50;98.00;;;;;;5020650;28;20491;-67
2023/06/22 08:31:59;;;;;;;5.30;3.20;;;28.60;98.00;;;;;;5024238;28;20451;-66
2023/06/22 08:34:27;;;;;;;5.53;3.30;;;28.70;98.00;;;;;;5017796;28;20456;-66
2023/06/22 08:36:54;;;;;;;5.70;3.40;;;28.90;97.30;;;;;;5013157;28;20625;-66
2023/06/22 08:39:22;;;;;;;6.00;3.40;;;29.10;97.00;;;;;;5013271;28;20456;-67
2023/06/22 08:41:49;;;;;;;11.30;3.73;;;29.30;95.80;;;;;;5012010;28;20462;-66
2023/06/22 08:44:19;;;;;;;5.83;3.73;;;29.40;96.20;;;;;;5013284;28;20452;-65
2023/06/22 08:46:46;;;;;;;5.37;3.40;;;29.50;95.90;;;;;;5013336;28;20451;-67
2023/06/22 08:49:15;;;;;;;8.90;3.60;;;29.60;94.80;;;;;;5013112;28;20463;-66
2023/06/22 08:51:44;;;;;;;8.00;3.67;;;29.60;94.20;;;;;;5012942;28;20458;-68
2023/06/22 08:54:11;;;;;;;8.67;3.40;;;29.50;93.50;;;;;;5011787;28;20910;-66
2023/06/22 08:56:38;;;;;;;7.30;4.17;;;29.60;94.70;;;;;;5017082;28;20447;-65
2023/06/22 08:59:07;;;;;;;7.87;3.70;;;29.60;94.30;;;;;;5013150;28;20459;-64
2023/06/22 09:01:34;;;;;;;6.90;3.90;;;29.60;94.20;;;;;;5012635;28;20462;-66
2023/06/22 09:04:01;;;;;;;12.23;3.97;;;29.80;94.10;;;;;;5011954;28;20459;-65
2023/06/22 09:06:31;;;;;;;6.50;3.43;;;29.90;93.30;;;;;;5011176;28;20464;-65
2023/06/22 09:08:59;;;;;;;6.70;3.67;;;30.00;93.00;;;;;;5012243;28;20872;-65
2023/06/22 09:11:26;;;;;;;7.27;3.47;;;30.20;93.70;;;;;;5012310;28;20487;-66
2023/06/22 09:13:54;;;;;;;6.83;3.50;;;30.30;93.70;;;;;;5010361;28;20452;-66
2023/06/22 09:16:21;;;;;;;7.60;3.90;;;30.40;92.40;;;;;;5011705;28;20973;-66
2023/06/22 09:18:49;;;;;;;10.80;3.97;;;30.40;93.90;;;;;;5011756;28;20455;-65
2023/06/22 09:21:16;;;;;;;9.67;4.20;;;30.60;93.60;;;;;;5011804;28;20460;-65
2023/06/22 09:23:49;;;;;;;5.93;3.33;;;30.80;93.00;;;;;;5011791;28;20949;-66
2023/06/22 09:26:17;;;;;;;7.10;3.93;;;30.80;91.70;;;;;;5011712;28;20521;-66
2023/06/22 09:28:44;;;;;;;7.37;4.20;;;31.00;91.90;;;;;;5011711;28;20456;-65
2023/06/22 09:31:11;;;;;;;5.90;3.70;;;31.20;91.80;;;;;;5010349;28;20530;-65
2023/06/22 09:33:39;;;;;;;7.57;4.13;;;31.20;91.20;;;;;;5010270;28;20456;-66
2023/06/22 09:36:09;;;;;;;11.13;5.00;;;31.40;90.00;;;;;;5011574;28;20467;-66
2023/06/22 09:38:36;;;;;;;9.23;4.13;;;31.50;90.60;;;;;;5011724;28;20460;-66
2023/06/22 09:41:05;;;;;;;9.27;3.97;;;31.60;90.00;;;;;;5011595;28;20827;-66
2023/06/22 09:43:34;;;;;;;8.30;3.80;;;31.70;89.00;;;;;;5010489;28;20506;-66
2023/06/22 09:46:02;;;;;;;7.70;4.27;;;31.70;89.70;;;;;;5011676;28;20463;-65
2023/06/22 09:48:29;;;;;;;6.47;4.10;;;32.00;88.20;;;;;;5011679;28;20455;-66
2023/06/22 09:50:56;;;;;;;8.27;4.23;;;32.00;87.50;;;;;;5011213;28;21203;-65
2023/06/22 09:53:23;;;;;;;6.20;3.60;;;32.10;89.80;;;;;;5010207;28;20807;-66
2023/06/22 09:55:50;;;;;;;11.47;4.40;;;32.30;88.30;;;;;;5011240;28;20513;-67
2023/06/22 09:58:19;;;;;;;9.00;4.07;;;32.30;87.30;;;;;;5011364;28;20467;-66
2023/06/22 10:00:46;;;;;;;13.13;4.40;;;32.20;88.10;;;;;;5011151;28;20487;-65
2023/06/22 10:03:13;;;;;;;8.37;4.10;;;32.10;87.70;;;;;;5010108;28;20447;-67
2023/06/22 10:05:40;;;;;;;11.00;4.50;;;32.10;87.40;;;;;;5011058;28;20463;-67
2023/06/22 10:08:09;;;;;;;6.83;4.20;;;32.20;87.20;;;;;;5019085;28;20451;-68
2023/06/22 10:10:36;;;;;;;9.47;4.57;;;32.20;87.90;;;;;;5025034;28;20482;-67
2023/06/22 10:13:09;;;;;;;9.80;4.70;;;32.40;87.10;;;;;;5022572;28;20458;-66
2023/06/22 10:15:38;;;;;;;8.30;4.47;;;32.50;87.50;;;;;;5207038;22;20519;-67
2023/06/22 10:18:06;;;;;;;7.37;3.87;;;32.70;87.40;;;;;;5011136;28;20447;-68
2023/06/22 10:20:33;;;;;;;6.90;4.17;;;32.90;87.40;;;;;;5010885;28;20952;-67
2023/06/22 10:23:00;;;;;;;7.57;4.40;;;33.10;84.30;;;;;;5011128;28;20478;-67
2023/06/22 10:25:29;;;;;;;8.33;4.70;;;33.30;86.50;;;;;;5011113;28;20459;-67
2023/06/22 10:27:56;;;;;;;7.63;4.50;;;33.30;85.20;;;;;;5010786;28;20463;-68
2023/06/22 10:30:23;;;;;;;8.50;4.53;;;33.30;84.50;;;;;;5011111;28;20487;-68
2023/06/22 10:32:52;;;;;;;6.87;3.80;;;33.20;85.70;;;;;;5010839;28;20546;-68
2023/06/22 10:35:19;;;;;;;8.07;4.23;;;33.10;84.60;;;;;;5011082;28;20466;-66
2023/06/22 10:37:47;;;;;;;13.23;4.67;;;33.00;84.80;;;;;;5009848;28;20836;-68
2023/06/22 10:40:16;;;;;;;11.47;4.30;;;32.90;85.00;;;;;;5011727;28;20451;-67
2023/06/22 10:42:43;;;;;;;15.07;4.30;;;32.80;85.20;;;;;;5011667;28;20459;-67
2023/06/22 10:45:10;;;;;;;7.40;4.67;;;32.70;85.70;;;;;;5014070;28;20467;-67
2023/06/22 10:47:38;;;;;;;6.70;4.17;;;32.90;85.40;;;;;;5015218;28;20513;-68
2023/06/22 10:50:08;;;;;;;7.13;4.43;;;33.00;85.70;;;;;;4997557;28;20487;-67
2023/06/22 10:52:35;;;;;;;7.80;4.67;;;33.30;86.40;;;;;;5014830;28;20463;-68
2023/06/22 10:55:02;;;;;;;11.90;4.30;;;33.60;85.30;;;;;;5014946;28;20475;-69
2023/06/22 10:57:29;;;;;;;8.23;4.00;;;34.00;84.80;;;;;;5014889;28;20485;-66
2023/06/22 10:59:56;;;;;;;7.37;4.57;;;34.20;83.30;;;;;;5014777;28;20580;-68
2023/06/22 11:02:24;;;;;;;7.60;4.20;;;34.30;83.00;;;;;;5014974;28;20447;-68
2023/06/22 11:04:53;;;;;;;8.53;4.60;;;34.20;83.50;;;;;;5014783;28;20479;-68
2023/06/22 11:07:22;;;;;;;7.67;4.47;;;34.40;83.90;;;;;;5014749;28;20459;-68
2023/06/22 11:09:49;;;;;;;10.67;5.07;;;34.50;83.00;;;;;;5014618;28;20470;-69
2023/06/22 11:12:16;;;;;;;8.80;4.53;;;34.50;82.60;;;;;;5014824;28;20447;-68
2023/06/22 11:14:43;;;;;;;15.87;4.50;;;34.60;81.60;;;;;;5014558;28;21041;-68
2023/06/22 11:17:10;;;;;;;19.33;4.80;;;34.60;82.50;;;;;;5014693;28;20487;-66
2023/06/22 11:19:38;;;;;;;9.50;4.93;;;34.70;82.40;;;;;;5014641;28;20459;-67
2023/06/22 11:22:07;;;;;;;8.33;4.40;;;34.60;81.30;;;;;;5014505;28;20463;-69
2023/06/22 11:24:35;;;;;;;6.43;3.90;;;34.80;81.50;;;;;;5014476;28;20462;-68
2023/06/22 11:27:02;;;;;;;9.50;4.07;;;34.90;80.20;;;;;;5014779;28;20467;-66
2023/06/22 11:29:30;;;;;;;8.87;4.40;;;35.00;80.70;;;;;;5014617;28;20455;-68
2023/06/22 11:31:57;;;;;;;7.60;4.77;;;35.10;81.00;;;;;;5013885;28;20479;-67
2023/06/22 11:34:24;;;;;;;9.50;4.80;;;35.20;80.20;;;;;;5013871;28;20459;-68
2023/06/22 11:36:52;;;;;;;8.13;4.30;;;35.00;80.90;;;;;;5014666;28;20771;-69
2023/06/22 11:39:19;;;;;;;8.73;4.50;;;35.10;80.90;;;;;;5013670;28;20471;-66
2023/06/22 11:41:48;;;;;;;9.57;4.57;;;35.20;80.40;;;;;;5014070;28;20792;-66
2023/06/22 11:44:15;;;;;;;9.33;4.60;;;35.20;79.90;;;;;;5013853;28;20554;-65
2023/06/22 11:46:42;;;;;;;9.13;4.70;;;35.20;80.50;;;;;;5013929;28;20459;-68
2023/06/22 11:49:09;;;;;;;8.13;4.90;;;35.10;80.40;;;;;;5013667;28;20853;-68
2023/06/22 11:51:36;;;;;;;9.80;4.80;;;35.10;81.50;;;;;;5013621;28;20533;-67
2023/06/22 11:54:03;;;;;;;10.10;5.30;;;35.10;80.80;;;;;;5013771;28;20804;-67
2023/06/22 11:56:31;;;;;;;8.93;4.80;;;35.00;80.30;;;;;;5013602;28;20474;-68
2023/06/22 11:59:01;;;;;;;11.40;5.47;;;35.00;80.40;;;;;;5013755;28;20492;-67
2023/06/22 12:01:29;;;;;;;8.43;4.73;;;34.70;80.50;;;;;;5013246;28;20534;-67
2023/06/22 12:03:56;;;;;;;8.33;4.77;;;34.60;81.10;;;;;;5013654;28;20836;-67
2023/06/22 12:06:23;;;;;;;11.37;5.00;;;34.50;82.00;;;;;;5013681;28;21084;-68
2023/06/22 12:08:50;;;;;;;7.77;4.93;;;34.40;81.60;;;;;;5012128;28;20456;-65
2023/06/22 12:11:17;;;;;;;7.17;4.33;;;34.20;82.20;;;;;;5013466;28;20491;-70
2023/06/22 12:13:44;;;;;;;12.10;5.10;;;34.00;83.30;;;;;;5013621;28;20965;-68
2023/06/22 12:16:13;;;;;;;9.17;3.90;;;33.80;84.10;;;;;;5013543;28;20471;-70
2023/06/22 12:18:41;;;;;;;8.57;4.50;;;33.80;84.00;;;;;;5013332;28;20455;-68
2023/06/22 12:21:08;;;;;;;7.00;4.10;;;33.80;83.90;;;;;;5012003;28;20460;-72
2023/06/22 12:23:35;;;;;;;11.20;4.70;;;33.80;84.30;;;;;;5013562;28;20457;-69
2023/06/22 12:26:02;;;;;;;8.87;4.80;;;33.90;83.70;;;;;;5013313;28;20464;-70
2023/06/22 12:28:29;;;;;;;8.77;5.00;;;33.90;83.60;;;;;;5013463;28;20958;-71
2023/06/22 12:30:56;;;;;;;12.17;5.10;;;34.00;83.40;;;;;;5013209;28;20483;-71
2023/06/22 12:33:24;;;;;;;7.53;4.80;;;34.00;82.90;;;;;;5013666;28;20462;-68
2023/06/22 12:35:51;;;;;;;8.87;4.80;;;33.80;84.10;;;;;;5015812;28;20455;-70
2023/06/22 12:38:19;;;;;;;8.10;4.90;;;33.70;84.10;;;;;;5025742;28;20816;-67
2023/06/22 12:40:47;;;;;;;14.67;4.70;;;33.60;84.50;;;;;;5032579;28;20827;-66
2023/06/22 12:43:14;;;;;;;10.33;4.60;;;33.50;84.50;;;;;;5026955;28;20451;-68
2023/06/22 12:45:41;;;;;;;9.37;5.00;;;33.30;84.70;;;;;;5019280;28;20539;-70
2023/06/22 12:48:09;;;;;;;8.87;4.70;;;33.20;85.50;;;;;;5032685;28;20454;-69